Truckton, Colorado
Current Conditions -  °F | °C
As of 7:02 PM on Monday 24 Nov 2014 (Local Time) from KSHM Reporting Station
Light Snow Light Snow  
Wind Chill: 16°   Ceiling: 14000
Heat Index: 25°   Visibility: 10mi
Dew Point: 19°   Wind: 8mph
Humidity: 80%   Direction: 320°NW
Pressure: 30.21"   Gusts: 20mph
Location:  38.697°N, 104.225°W
Report Text: KSHM 250202Z AUTO 32007G17KT 10SM -SN FEW040 SCT075 BKN140 M04/M07 A3021 RMK AO2
Loading
Personal Weather Stations






























Interactive Weather Map New forecast layout! Learn more

10-Day Weather Forecast

Advertisements
Track Severe Weather on mobile